Pagina principale
METAR-TAF:

METAR-TAF

Aeroporti :

Aeroporto di Osijek-Klisa

Osijek, Croazia

latitudine: 45-27N, longitudine: 018-48E, altezza: 88 m

Osservazione

Il bollettino è stato emesso 29 minuti fa, alle 19:00 UTC
Vento 4 kt da nord-ovest
Temperature 15°C
Umidità 72%
Pressione 1019 hPa
Visibilità 10 km o più
nessuna nube inferiore a 1500 m e nessun cumulonembo

METAR: LDOS 231900Z 32004KT CAVOK 15/10 Q1019

Ora: 21:29 (19:29 UTC)

Previsione

Il bollettino è stato emesso 2 ore e 4 minuti fa, alle 17:25 UTC
Previsione valida dal 23 alle 18 UTC al 24 alle 18 UTC
Vento 8 kt da nord-ovest
Visibilità 10 km o più
Nubi sparse ad un'altezza di 3000 ft

TAF: LDOS 231725Z 2318/2418 31008KT 9999 SCT030 TX21/2414Z TN10/2403Z

Osservazioni e previsioni meteorologiche di più di 4000 aeroporti (messaggi METAR e TAF).

Le stazioni disponibili sono rappresentate dai dischi gialli e rossi sulla carta.

Puntare il mouse per vedere il nome della stazione.

Clicca sopra per visualizzare le osservazioni e previsioni meteorologiche.

Per cambiare la mappa : fare clic sui pulsanti verdi con una croce nera per ingrandire, il pulsante verde con un trattino per diminuire, o sulla freccia verde per le mappe adiacenti.


METAR-TAF: